createdAt,value
2022-10-02T00:02:15.561Z,3.30
2022-10-02T00:04:46.419Z,3.63
2022-10-02T00:07:15.488Z,3.78
2022-10-02T00:09:54.733Z,3.83
2022-10-02T00:12:29.670Z,4.07
2022-10-02T00:15:08.690Z,5.20
2022-10-02T00:17:43.082Z,4.05
2022-10-02T00:20:25.627Z,4.50
2022-10-02T00:22:59.121Z,3.90
2022-10-02T00:26:11.740Z,4.70
2022-10-02T00:28:38.248Z,3.65
2022-10-02T00:31:26.031Z,4.55
2022-10-02T00:34:23.497Z,5.03
2022-10-02T00:37:09.324Z,4.25
2022-10-02T00:39:59.790Z,3.87
2022-10-02T00:42:35.033Z,4.40
2022-10-02T00:45:25.923Z,3.63
2022-10-02T00:47:59.395Z,3.10
2022-10-02T00:50:34.783Z,3.67
2022-10-02T00:53:18.953Z,3.50
2022-10-02T00:56:09.051Z,3.58
2022-10-02T00:58:46.677Z,3.85
2022-10-02T01:01:22.648Z,3.75
2022-10-02T01:03:54.731Z,3.65
2022-10-02T01:06:25.836Z,4.70
2022-10-02T01:08:54.661Z,4.18
2022-10-02T01:11:24.509Z,3.90
2022-10-02T01:13:54.114Z,4.78
2022-10-02T01:16:23.718Z,2.88
2022-10-02T01:18:53.018Z,3.20
2022-10-02T01:21:40.678Z,3.05
2022-10-02T01:24:21.036Z,4.03
2022-10-02T01:26:50.358Z,3.17
2022-10-02T01:29:19.309Z,4.10
2022-10-02T01:31:48.505Z,3.73
2022-10-02T01:34:17.315Z,3.90
2022-10-02T01:36:47.500Z,4.15
2022-10-02T01:39:14.797Z,3.60
2022-10-02T01:41:44.301Z,4.20
2022-10-02T01:44:11.766Z,3.80
2022-10-02T01:47:00.260Z,4.40
2022-10-02T01:49:35.947Z,3.10
2022-10-02T01:52:30.480Z,4.25
2022-10-02T01:55:18.914Z,4.38
2022-10-02T01:58:05.558Z,5.40
2022-10-02T02:00:55.712Z,3.70
2022-10-02T02:03:24.260Z,3.75
2022-10-02T02:05:56.311Z,5.35
2022-10-02T02:08:34.730Z,4.32
2022-10-02T02:11:09.707Z,4.63
2022-10-02T02:14:02.116Z,4.03
2022-10-02T02:16:46.165Z,3.65
2022-10-02T02:19:34.749Z,4.13
2022-10-02T02:22:08.383Z,4.63
2022-10-02T02:24:40.373Z,4.13
2022-10-02T02:27:16.373Z,3.67
2022-10-02T02:29:51.209Z,3.80
2022-10-02T02:32:23.956Z,4.35
2022-10-02T02:35:08.874Z,3.45
2022-10-02T02:37:39.735Z,4.93
2022-10-02T02:40:16.038Z,2.90
2022-10-02T02:42:49.497Z,4.05
2022-10-02T02:45:20.735Z,5.88
2022-10-02T02:47:57.922Z,3.78
2022-10-02T02:50:32.798Z,4.70
2022-10-02T02:53:12.641Z,2.90
2022-10-02T02:55:48.549Z,3.78
2022-10-02T02:58:23.937Z,4.32
2022-10-02T03:00:52.858Z,3.35
2022-10-02T03:03:21.643Z,2.70
2022-10-02T03:05:53.542Z,3.40
2022-10-02T03:08:24.644Z,4.25
2022-10-02T03:11:19.020Z,4.85
2022-10-02T03:14:26.014Z,5.18
2022-10-02T03:17:12.275Z,3.63
2022-10-02T03:20:06.680Z,3.08
2022-10-02T03:22:52.079Z,3.22
2022-10-02T03:25:29.844Z,3.53
2022-10-02T03:28:02.290Z,3.53
2022-10-02T03:30:30.500Z,3.37
2022-10-02T03:33:03.376Z,3.38
2022-10-02T03:35:31.651Z,2.97
2022-10-02T03:38:05.206Z,4.10
2022-10-02T03:40:34.783Z,4.13
2022-10-02T03:43:01.668Z,4.47
2022-10-02T03:48:16.949Z,3.33
2022-10-02T03:50:43.917Z,4.05
2022-10-02T03:53:19.991Z,3.50
2022-10-02T03:55:58.899Z,4.67
2022-10-02T03:58:27.693Z,4.05
2022-10-02T04:01:02.355Z,3.88
2022-10-02T04:03:38.775Z,3.45
2022-10-02T04:06:09.476Z,4.30
2022-10-02T04:09:10.904Z,3.83
2022-10-02T04:11:53.980Z,3.38
2022-10-02T04:14:41.743Z,3.85
2022-10-02T04:17:27.914Z,3.60
2022-10-02T04:20:12.199Z,3.80
2022-10-02T04:22:45.562Z,5.13
2022-10-02T04:25:20.262Z,3.55
2022-10-02T04:28:01.444Z,3.80
2022-10-02T04:30:32.541Z,4.78
2022-10-02T04:33:14.410Z,3.60
2022-10-02T04:36:01.637Z,4.47
2022-10-02T04:38:43.330Z,4.20
2022-10-02T04:41:43.228Z,4.55
2022-10-02T04:44:34.444Z,4.03
2022-10-02T04:47:12.505Z,5.43
2022-10-02T04:50:13.539Z,4.10
2022-10-02T04:52:52.988Z,4.70
2022-10-02T04:55:32.252Z,5.22
2022-10-02T04:58:08.368Z,4.13
2022-10-02T05:00:46.371Z,4.85
2022-10-02T05:03:28.666Z,3.57
2022-10-02T05:06:18.037Z,3.92
2022-10-02T05:09:02.034Z,3.85
2022-10-02T05:11:35.759Z,5.65
2022-10-02T05:14:20.607Z,5.10
2022-10-02T05:16:55.625Z,6.37
2022-10-02T05:20:03.693Z,6.10
2022-10-02T05:22:40.825Z,4.28
2022-10-02T05:25:26.087Z,4.18
2022-10-02T05:28:53.512Z,3.92
2022-10-02T05:32:04.454Z,5.73
2022-10-02T05:35:05.189Z,6.25
2022-10-02T05:37:44.064Z,3.50
2022-10-02T05:40:25.525Z,4.40
2022-10-02T05:43:07.872Z,4.50
2022-10-02T05:45:55.686Z,3.07
2022-10-02T05:48:34.735Z,5.90
2022-10-02T05:51:20.688Z,4.82
2022-10-02T05:53:53.938Z,4.32
2022-10-02T05:56:24.430Z,5.78
2022-10-02T05:58:57.390Z,3.73
2022-10-02T06:01:46.600Z,5.70
2022-10-02T06:04:20.627Z,4.82
2022-10-02T06:06:49.167Z,3.58
2022-10-02T06:09:20.675Z,3.42
2022-10-02T06:11:53.308Z,4.60
2022-10-02T06:14:41.141Z,4.20
2022-10-02T06:17:19.076Z,3.70
2022-10-02T06:20:16.647Z,4.93
2022-10-02T06:22:50.694Z,3.95
2022-10-02T06:25:24.214Z,3.10
2022-10-02T06:27:57.501Z,3.75
2022-10-02T06:30:28.954Z,3.17
2022-10-02T06:33:14.018Z,3.33
2022-10-02T06:36:12.028Z,2.70
2022-10-02T06:39:02.965Z,2.33
2022-10-02T06:42:00.551Z,5.43
2022-10-02T06:44:42.255Z,6.90
2022-10-02T06:47:34.972Z,6.03
2022-10-02T06:50:42.015Z,5.32
2022-10-02T06:53:39.576Z,3.67
2022-10-02T06:56:15.029Z,2.88
2022-10-02T06:58:47.943Z,2.67
2022-10-02T07:01:30.177Z,2.53
2022-10-02T07:04:17.452Z,2.42
2022-10-02T07:06:46.054Z,4.13
2022-10-02T07:09:37.594Z,1.98
2022-10-02T07:12:31.824Z,1.90
2022-10-02T07:15:18.533Z,2.05
2022-10-02T07:18:15.543Z,1.95
2022-10-02T07:20:51.652Z,2.47
2022-10-02T07:23:42.412Z,2.50
2022-10-02T07:26:33.771Z,2.58
2022-10-02T07:29:41.126Z,2.72
2022-10-02T07:32:11.716Z,2.25
2022-10-02T07:34:57.269Z,1.93
2022-10-02T07:37:47.813Z,2.50
2022-10-02T07:41:01.392Z,3.75
2022-10-02T07:43:56.437Z,2.50
2022-10-02T07:46:41.719Z,1.77
2022-10-02T07:49:39.158Z,1.60
2022-10-02T07:52:29.324Z,2.17
2022-10-02T07:54:59.179Z,1.95
2022-10-02T07:57:38.058Z,1.38
2022-10-02T08:00:17.990Z,2.15
2022-10-02T08:02:53.406Z,1.53
2022-10-02T08:05:34.820Z,2.08
2022-10-02T08:08:18.306Z,2.20
2022-10-02T08:10:49.832Z,1.83
2022-10-02T08:13:20.843Z,1.42
2022-10-02T08:15:57.853Z,1.90
2022-10-02T08:18:36.319Z,2.28
2022-10-02T08:21:14.674Z,2.45
2022-10-02T08:23:52.530Z,2.20
2022-10-02T08:26:35.787Z,2.10
2022-10-02T08:29:23.627Z,2.17
2022-10-02T08:31:53.028Z,1.67
2022-10-02T08:34:21.961Z,1.40
2022-10-02T08:37:10.763Z,1.70
2022-10-02T08:39:50.629Z,1.25
2022-10-02T08:42:55.463Z,1.50
2022-10-02T08:46:02.528Z,1.60
2022-10-02T08:48:49.594Z,1.80
2022-10-02T08:51:39.892Z,1.80
2022-10-02T08:54:28.440Z,2.92
2022-10-02T08:57:36.790Z,1.30
2022-10-02T09:00:21.713Z,1.55
2022-10-02T09:03:12.991Z,2.45
2022-10-02T09:06:05.451Z,1.40
2022-10-02T09:09:03.194Z,1.42
2022-10-02T09:12:09.003Z,1.70
2022-10-02T09:15:03.133Z,1.40
2022-10-02T09:17:57.364Z,2.00
2022-10-02T09:20:41.499Z,1.35
2022-10-02T09:23:45.642Z,1.65
2022-10-02T09:26:30.191Z,1.67
2022-10-02T09:29:10.327Z,2.13
2022-10-02T09:31:58.775Z,1.83
2022-10-02T09:34:42.667Z,1.58
2022-10-02T09:37:28.450Z,1.38
2022-10-02T09:39:57.238Z,1.53
2022-10-02T09:42:26.719Z,2.10
2022-10-02T09:45:22.092Z,1.50
2022-10-02T09:48:08.659Z,1.52
2022-10-02T09:51:08.311Z,1.40
2022-10-02T09:54:09.241Z,1.57
2022-10-02T09:57:04.015Z,1.05
2022-10-02T09:59:54.719Z,1.30
2022-10-02T10:02:44.213Z,3.15
2022-10-02T10:05:26.871Z,1.40
2022-10-02T10:07:53.545Z,1.10
2022-10-02T10:10:36.746Z,1.30
2022-10-02T10:13:24.188Z,1.33
2022-10-02T10:16:12.360Z,1.60
2022-10-02T10:19:07.792Z,1.50
2022-10-02T10:21:55.871Z,1.57
2022-10-02T10:24:23.281Z,1.88
2022-10-02T10:27:09.519Z,1.10
2022-10-02T10:29:56.187Z,0.80
2022-10-02T10:32:44.280Z,1.50
2022-10-02T10:35:19.714Z,1.20
2022-10-02T10:38:07.758Z,1.38
2022-10-02T10:40:43.118Z,1.17
2022-10-02T10:43:50.509Z,0.80
2022-10-02T10:46:31.198Z,0.73
2022-10-02T10:49:24.779Z,1.63
2022-10-02T10:52:03.945Z,1.15
2022-10-02T10:54:53.403Z,0.50
2022-10-02T10:57:54.385Z,1.60
2022-10-02T11:00:56.174Z,1.10
2022-10-02T11:03:37.995Z,0.90
2022-10-02T11:06:13.461Z,0.90
2022-10-02T11:08:58.808Z,1.15
2022-10-02T11:11:28.463Z,0.85
2022-10-02T11:14:01.002Z,1.30
2022-10-02T11:17:31.778Z,2.20
2022-10-02T11:20:20.415Z,0.88
2022-10-02T11:22:55.731Z,2.45
2022-10-02T11:25:34.342Z,0.80
2022-10-02T11:28:24.825Z,0.80
2022-10-02T11:30:56.721Z,0.90
2022-10-02T11:33:48.918Z,1.10
2022-10-02T11:36:42.529Z,1.70
2022-10-02T11:39:18.467Z,1.00
2022-10-02T11:41:59.439Z,1.75
2022-10-02T11:44:41.141Z,1.90
2022-10-02T11:47:35.450Z,2.13
2022-10-02T11:50:39.963Z,2.20
2022-10-02T11:53:36.875Z,1.20
2022-10-02T11:56:15.452Z,1.05
2022-10-02T11:59:00.670Z,1.53
2022-10-02T12:01:32.157Z,1.17
2022-10-02T12:04:18.838Z,1.23
2022-10-02T12:06:51.579Z,2.25
2022-10-02T12:09:33.143Z,0.90
2022-10-02T12:12:12.702Z,1.93
2022-10-02T12:15:00.673Z,1.10
2022-10-02T12:17:35.544Z,1.10
2022-10-02T12:20:20.619Z,1.80
2022-10-02T12:23:29.790Z,1.00
2022-10-02T12:26:28.940Z,1.33
2022-10-02T12:29:05.665Z,1.35
2022-10-02T12:31:51.485Z,2.53
2022-10-02T12:34:20.891Z,1.70
2022-10-02T12:36:58.435Z,1.17
2022-10-02T12:39:42.611Z,1.50
2022-10-02T12:42:27.941Z,1.85
2022-10-02T12:45:00.597Z,1.38
2022-10-02T12:47:47.332Z,1.17
2022-10-02T12:50:32.245Z,2.75
2022-10-02T12:53:04.790Z,1.20
2022-10-02T12:56:08.542Z,1.02
2022-10-02T12:59:09.280Z,1.58
2022-10-02T13:01:57.390Z,1.38
2022-10-02T13:04:45.102Z,1.42
2022-10-02T13:07:27.620Z,1.50
2022-10-02T13:10:08.601Z,1.60
2022-10-02T13:13:03.838Z,1.13
2022-10-02T13:15:39.489Z,2.38
2022-10-02T13:18:33.807Z,1.63
2022-10-02T13:21:35.885Z,2.13
2022-10-02T13:24:28.390Z,2.53
2022-10-02T13:27:17.008Z,1.80
2022-10-02T13:29:52.432Z,3.22
2022-10-02T13:32:22.765Z,1.80
2022-10-02T13:35:20.475Z,1.80
2022-10-02T13:37:49.280Z,2.20
2022-10-02T13:40:28.644Z,2.00
2022-10-02T13:43:09.969Z,1.30
2022-10-02T13:46:02.456Z,3.05
2022-10-02T13:48:58.763Z,1.00
2022-10-02T13:51:34.654Z,0.85
2022-10-02T13:54:24.335Z,1.65
2022-10-02T13:57:15.846Z,1.27
2022-10-02T14:00:00.669Z,1.10
2022-10-02T14:02:44.666Z,1.57
2022-10-02T14:05:36.077Z,3.58
2022-10-02T14:08:21.188Z,1.67
2022-10-02T14:11:20.381Z,1.10
2022-10-02T14:14:06.850Z,1.23
2022-10-02T14:16:55.315Z,1.20
2022-10-02T14:19:40.242Z,1.15
2022-10-02T14:22:21.733Z,1.58
2022-10-02T14:25:22.854Z,0.82
2022-10-02T14:28:07.202Z,1.08
2022-10-02T14:30:33.735Z,1.40
2022-10-02T14:33:09.407Z,1.15
2022-10-02T14:35:54.049Z,0.90
2022-10-02T14:38:54.400Z,0.80
2022-10-02T14:41:28.957Z,2.53
2022-10-02T14:44:16.802Z,0.83
2022-10-02T14:47:02.102Z,1.85
2022-10-02T14:49:44.633Z,2.70
2022-10-02T14:52:28.806Z,0.90
2022-10-02T14:55:01.968Z,0.73
2022-10-02T14:57:30.488Z,1.23
2022-10-02T15:00:00.091Z,1.58
2022-10-02T15:02:50.993Z,1.98
2022-10-02T15:05:32.728Z,1.25
2022-10-02T15:08:12.604Z,1.17
2022-10-02T15:10:44.866Z,0.97
2022-10-02T15:13:28.370Z,1.45
2022-10-02T15:16:16.709Z,1.67
2022-10-02T15:18:55.379Z,1.45
2022-10-02T15:21:47.405Z,0.77
2022-10-02T15:24:34.159Z,1.33
2022-10-02T15:27:23.840Z,2.75
2022-10-02T15:30:02.457Z,1.15
2022-10-02T15:32:47.878Z,1.83
2022-10-02T15:35:35.857Z,1.80
2022-10-02T15:38:30.962Z,1.43
2022-10-02T15:41:16.674Z,1.45
2022-10-02T15:44:06.721Z,2.25
2022-10-02T15:46:42.160Z,2.83
2022-10-02T15:49:12.536Z,3.20
2022-10-02T15:52:00.651Z,1.97
2022-10-02T15:54:51.922Z,2.65
2022-10-02T15:57:29.609Z,1.30
2022-10-02T16:00:09.354Z,2.25
2022-10-02T16:03:10.089Z,1.98
2022-10-02T16:05:39.386Z,1.30
2022-10-02T16:08:19.745Z,2.03
2022-10-02T16:10:58.542Z,1.70
2022-10-02T16:13:47.344Z,1.77
2022-10-02T16:16:25.291Z,3.05
2022-10-02T16:19:07.347Z,2.70
2022-10-02T16:21:45.847Z,1.98
2022-10-02T16:24:28.423Z,2.05
2022-10-02T16:27:19.678Z,2.10
2022-10-02T16:29:49.181Z,1.60
2022-10-02T16:32:41.764Z,2.97
2022-10-02T16:35:43.716Z,1.10
2022-10-02T16:38:52.383Z,3.63
2022-10-02T16:41:25.275Z,1.77
2022-10-02T16:44:03.938Z,2.17
2022-10-02T16:46:44.940Z,2.60
2022-10-02T16:49:25.817Z,1.95
2022-10-02T16:51:55.274Z,1.63
2022-10-02T16:54:24.798Z,2.03
2022-10-02T16:56:59.233Z,2.63
2022-10-02T16:59:31.176Z,1.30
2022-10-02T17:02:18.166Z,1.67
2022-10-02T17:05:09.358Z,2.05
2022-10-02T17:07:42.282Z,2.85
2022-10-02T17:10:50.424Z,1.65
2022-10-02T17:13:29.636Z,2.23
2022-10-02T17:15:59.259Z,1.65
2022-10-02T17:18:46.374Z,1.98
2022-10-02T17:21:19.847Z,2.90
2022-10-02T17:24:22.165Z,2.50
2022-10-02T17:27:03.940Z,2.57
2022-10-02T17:29:43.298Z,3.05
2022-10-02T17:32:14.962Z,1.90
2022-10-02T17:34:49.178Z,2.47
2022-10-02T17:37:18.407Z,2.38
2022-10-02T17:40:22.212Z,1.60
2022-10-02T17:43:15.891Z,1.00
2022-10-02T17:46:01.994Z,1.55
2022-10-02T17:48:51.504Z,2.20
2022-10-02T17:51:59.268Z,1.42
2022-10-02T17:54:50.481Z,1.10
2022-10-02T17:58:13.176Z,1.15
2022-10-02T18:00:58.336Z,1.27
2022-10-02T18:03:49.513Z,1.13
2022-10-02T18:06:30.544Z,1.05
2022-10-02T18:09:30.184Z,0.87
2022-10-02T18:12:16.236Z,0.90
2022-10-02T18:14:55.357Z,2.05
2022-10-02T18:17:41.429Z,1.02
2022-10-02T18:20:34.459Z,1.33
2022-10-02T18:23:00.981Z,1.77
2022-10-02T18:25:50.908Z,0.93
2022-10-02T18:28:23.461Z,1.58
2022-10-02T18:30:58.848Z,1.38
2022-10-02T18:33:54.456Z,1.23
2022-10-02T18:37:04.323Z,0.83
2022-10-02T18:39:44.898Z,1.27
2022-10-02T18:42:41.005Z,2.42
2022-10-02T18:45:45.665Z,1.25
2022-10-02T18:48:39.398Z,1.35
2022-10-02T18:51:28.979Z,1.37
2022-10-02T18:54:12.920Z,1.45
2022-10-02T18:56:59.681Z,1.90
2022-10-02T18:59:36.851Z,1.23
2022-10-02T19:02:20.728Z,1.63
2022-10-02T19:04:50.461Z,0.90
2022-10-02T19:07:49.334Z,1.30
2022-10-02T19:10:29.387Z,1.65
2022-10-02T19:13:18.192Z,2.10
2022-10-02T19:15:46.758Z,1.77
2022-10-02T19:18:20.525Z,2.60
2022-10-02T19:20:58.084Z,0.50
2022-10-02T19:23:32.902Z,1.92
2022-10-02T19:26:17.258Z,1.23
2022-10-02T19:28:58.822Z,1.13
2022-10-02T19:31:39.648Z,1.80
2022-10-02T19:34:17.439Z,0.93
2022-10-02T19:36:50.421Z,1.58
2022-10-02T19:39:36.838Z,0.80
2022-10-02T19:42:15.253Z,1.10
2022-10-02T19:44:47.541Z,1.03
2022-10-02T19:47:27.400Z,2.60
2022-10-02T19:49:56.962Z,2.17
2022-10-02T19:52:37.893Z,2.53
2022-10-02T19:55:35.546Z,1.88
2022-10-02T19:58:25.002Z,2.23
2022-10-02T20:00:53.451Z,2.55
2022-10-02T20:03:22.183Z,1.92
2022-10-02T20:05:59.457Z,2.72
2022-10-02T20:08:31.163Z,2.15
2022-10-02T20:11:08.029Z,1.33
2022-10-02T20:13:40.884Z,1.63
2022-10-02T20:16:38.705Z,1.17
2022-10-02T20:19:08.172Z,3.05
2022-10-02T20:21:43.576Z,2.08
2022-10-02T20:24:36.119Z,2.97
2022-10-02T20:27:13.353Z,1.40
2022-10-02T20:29:48.922Z,1.30
2022-10-02T20:32:27.575Z,1.25
2022-10-02T20:35:03.323Z,1.23
2022-10-02T20:37:35.006Z,1.88
2022-10-02T20:40:13.338Z,1.77
2022-10-02T20:43:25.686Z,2.33
2022-10-02T20:45:59.865Z,1.30
2022-10-02T20:49:08.001Z,1.13
2022-10-02T20:52:05.512Z,2.72
2022-10-02T20:54:42.021Z,1.30
2022-10-02T20:57:20.744Z,1.33
2022-10-02T21:00:16.880Z,1.10
2022-10-02T21:03:08.451Z,1.20
2022-10-02T21:06:08.535Z,1.27
2022-10-02T21:08:41.288Z,1.02
2022-10-02T21:11:39.364Z,1.43
2022-10-02T21:14:45.225Z,2.47
2022-10-02T21:17:46.658Z,1.40
2022-10-02T21:20:53.568Z,1.63
2022-10-02T21:23:32.094Z,2.33
2022-10-02T21:26:19.932Z,2.10
2022-10-02T21:29:04.699Z,1.70
2022-10-02T21:32:02.398Z,2.30
2022-10-02T21:34:54.027Z,1.73
2022-10-02T21:37:26.621Z,1.42
2022-10-02T21:40:12.535Z,1.10
2022-10-02T21:43:06.884Z,2.13
2022-10-02T21:45:36.365Z,0.82
2022-10-02T21:48:24.396Z,1.83
2022-10-02T21:51:22.505Z,3.53
2022-10-02T21:54:26.761Z,1.30
2022-10-02T21:57:14.506Z,1.83
2022-10-02T22:00:15.885Z,3.35
2022-10-02T22:02:50.494Z,2.22
2022-10-02T22:05:46.563Z,2.05
2022-10-02T22:08:36.938Z,2.50
2022-10-02T22:11:26.789Z,1.85
2022-10-02T22:14:02.240Z,2.78
2022-10-02T22:17:06.121Z,2.17
2022-10-02T22:19:51.278Z,1.45
2022-10-02T22:22:46.027Z,2.10
2022-10-02T22:25:18.976Z,1.40
2022-10-02T22:28:02.842Z,3.05
2022-10-02T22:30:39.448Z,3.65
2022-10-02T22:33:27.986Z,2.45
2022-10-02T22:36:25.706Z,3.50
2022-10-02T22:39:24.008Z,1.15
2022-10-02T22:42:12.311Z,1.35
2022-10-02T22:44:41.843Z,2.55
2022-10-02T22:47:12.149Z,1.17
2022-10-02T22:49:48.956Z,1.50
2022-10-02T22:52:32.401Z,1.25
2022-10-02T22:55:08.723Z,1.40
2022-10-02T22:57:44.518Z,1.25
2022-10-02T23:00:23.652Z,2.03
2022-10-02T23:02:56.897Z,2.80
2022-10-02T23:05:36.914Z,1.40
2022-10-02T23:08:48.842Z,2.08
2022-10-02T23:11:44.651Z,2.88
2022-10-02T23:14:24.743Z,2.03
2022-10-02T23:17:01.438Z,1.83
2022-10-02T23:19:44.597Z,2.45
2022-10-02T23:22:26.564Z,2.55
2022-10-02T23:25:02.111Z,4.15
2022-10-02T23:27:50.414Z,1.40
2022-10-02T23:30:23.596Z,2.13
2022-10-02T23:32:59.898Z,1.60
2022-10-02T23:35:37.188Z,1.25
2022-10-02T23:38:14.544Z,1.60
2022-10-02T23:41:24.000Z,1.98
2022-10-02T23:43:58.652Z,1.20
2022-10-02T23:46:31.425Z,1.40
2022-10-02T23:48:59.081Z,1.40
2022-10-02T23:52:09.167Z,1.05
2022-10-02T23:54:51.345Z,1.25
2022-10-02T23:57:23.834Z,1.53
